sensor_id;sensor_type;location;lat;lon;timestamp;P1;durP1;ratioP1;P2;durP2;ratioP2
1014;SDS011;8170;48.118;11.628;2023-01-24T00:00:28;57.05;;;30.52;;
1014;SDS011;8170;48.118;11.628;2023-01-24T00:01:46;64.85;;;34.17;;
1014;SDS011;8170;48.118;11.628;2023-01-24T00:03:00;61.80;;;31.65;;
1014;SDS011;8170;48.118;11.628;2023-01-24T00:04:21;59.67;;;30.83;;
1014;SDS011;8170;48.118;11.628;2023-01-24T00:05:47;65.80;;;32.50;;
1014;SDS011;8170;48.118;11.628;2023-01-24T00:07:12;61.85;;;30.98;;
1014;SDS011;8170;48.118;11.628;2023-01-24T00:08:31;55.83;;;29.80;;
1014;SDS011;8170;48.118;11.628;2023-01-24T00:09:56;56.42;;;30.20;;
1014;SDS011;8170;48.118;11.628;2023-01-24T00:11:09;67.43;;;32.08;;
1014;SDS011;8170;48.118;11.628;2023-01-24T00:12:22;53.72;;;29.35;;
1014;SDS011;8170;48.118;11.628;2023-01-24T00:13:28;62.03;;;32.08;;
1014;SDS011;8170;48.118;11.628;2023-01-24T00:14:44;57.90;;;28.75;;
1014;SDS011;8170;48.118;11.628;2023-01-24T00:16:03;63.05;;;31.83;;
1014;SDS011;8170;48.118;11.628;2023-01-24T00:17:09;60.85;;;31.05;;
1014;SDS011;8170;48.118;11.628;2023-01-24T00:18:37;67.72;;;32.50;;
1014;SDS011;8170;48.118;11.628;2023-01-24T00:19:51;72.70;;;34.13;;
1014;SDS011;8170;48.118;11.628;2023-01-24T00:21:04;54.63;;;31.05;;
1014;SDS011;8170;48.118;11.628;2023-01-24T00:22:25;68.50;;;33.05;;
1014;SDS011;8170;48.118;11.628;2023-01-24T00:23:55;68.80;;;33.13;;
1014;SDS011;8170;48.118;11.628;2023-01-24T00:25:07;68.68;;;33.63;;
1014;SDS011;8170;48.118;11.628;2023-01-24T00:26:26;68.10;;;31.77;;
1014;SDS011;8170;48.118;11.628;2023-01-24T00:27:33;65.40;;;32.55;;
1014;SDS011;8170;48.118;11.628;2023-01-24T00:28:52;65.95;;;33.08;;
1014;SDS011;8170;48.118;11.628;2023-01-24T00:30:14;64.55;;;32.30;;
1014;SDS011;8170;48.118;11.628;2023-01-24T00:31:26;76.00;;;34.22;;
1014;SDS011;8170;48.118;11.628;2023-01-24T00:32:41;66.25;;;35.42;;
1014;SDS011;8170;48.118;11.628;2023-01-24T00:33:56;62.90;;;33.05;;
1014;SDS011;8170;48.118;11.628;2023-01-24T00:35:07;75.10;;;33.20;;
1014;SDS011;8170;48.118;11.628;2023-01-24T00:36:20;58.55;;;32.15;;
1014;SDS011;8170;48.118;11.628;2023-01-24T00:37:30;67.95;;;31.77;;
1014;SDS011;8170;48.118;11.628;2023-01-24T00:38:44;76.93;;;33.95;;
1014;SDS011;8170;48.118;11.628;2023-01-24T00:39:57;73.18;;;35.20;;
1014;SDS011;8170;48.118;11.628;2023-01-24T00:41:16;67.00;;;32.67;;
1014;SDS011;8170;48.118;11.628;2023-01-24T00:42:47;68.93;;;32.42;;
1014;SDS011;8170;48.118;11.628;2023-01-24T00:43:56;70.65;;;33.65;;
1014;SDS011;8170;48.118;11.628;2023-01-24T00:45:04;67.55;;;34.17;;
1014;SDS011;8170;48.118;11.628;2023-01-24T00:46:16;68.38;;;32.80;;
1014;SDS011;8170;48.118;11.628;2023-01-24T00:47:26;70.95;;;33.85;;
1014;SDS011;8170;48.118;11.628;2023-01-24T00:48:35;56.22;;;29.73;;
1014;SDS011;8170;48.118;11.628;2023-01-24T00:49:57;54.25;;;29.92;;
1014;SDS011;8170;48.118;11.628;2023-01-24T00:51:17;69.32;;;33.05;;
1014;SDS011;8170;48.118;11.628;2023-01-24T00:52:30;67.10;;;32.78;;
1014;SDS011;8170;48.118;11.628;2023-01-24T00:54:02;74.28;;;33.15;;
1014;SDS011;8170;48.118;11.628;2023-01-24T00:55:19;77.28;;;34.90;;
1014;SDS011;8170;48.118;11.628;2023-01-24T00:56:42;65.25;;;32.25;;
1014;SDS011;8170;48.118;11.628;2023-01-24T00:57:58;78.68;;;33.70;;
1014;SDS011;8170;48.118;11.628;2023-01-24T00:59:06;69.30;;;31.52;;
1014;SDS011;8170;48.118;11.628;2023-01-24T01:00:19;65.50;;;31.40;;
1014;SDS011;8170;48.118;11.628;2023-01-24T01:01:38;69.82;;;31.92;;
1014;SDS011;8170;48.118;11.628;2023-01-24T01:02:48;67.43;;;33.72;;
1014;SDS011;8170;48.118;11.628;2023-01-24T01:03:56;71.03;;;34.67;;
1014;SDS011;8170;48.118;11.628;2023-01-24T01:05:22;85.22;;;35.33;;
1014;SDS011;8170;48.118;11.628;2023-01-24T01:06:36;71.95;;;32.67;;
1014;SDS011;8170;48.118;11.628;2023-01-24T01:07:49;80.22;;;34.80;;
1014;SDS011;8170;48.118;11.628;2023-01-24T01:09:09;72.65;;;34.53;;
1014;SDS011;8170;48.118;11.628;2023-01-24T01:10:28;82.93;;;34.33;;
1014;SDS011;8170;48.118;11.628;2023-01-24T01:11:31;79.75;;;36.50;;
1014;SDS011;8170;48.118;11.628;2023-01-24T01:13:14;65.18;;;32.38;;
1014;SDS011;8170;48.118;11.628;2023-01-24T01:14:26;75.63;;;34.90;;
1014;SDS011;8170;48.118;11.628;2023-01-24T01:15:44;84.32;;;35.38;;
1014;SDS011;8170;48.118;11.628;2023-01-24T01:17:00;82.88;;;36.53;;
1014;SDS011;8170;48.118;11.628;2023-01-24T01:18:11;75.22;;;35.40;;
1014;SDS011;8170;48.118;11.628;2023-01-24T01:19:32;67.28;;;32.50;;
1014;SDS011;8170;48.118;11.628;2023-01-24T01:20:56;60.20;;;31.55;;
1014;SDS011;8170;48.118;11.628;2023-01-24T01:22:03;70.20;;;34.47;;
1014;SDS011;8170;48.118;11.628;2023-01-24T01:23:11;76.30;;;36.65;;
1014;SDS011;8170;48.118;11.628;2023-01-24T01:24:24;82.88;;;37.67;;
1014;SDS011;8170;48.118;11.628;2023-01-24T01:25:40;70.15;;;40.65;;
1014;SDS011;8170;48.118;11.628;2023-01-24T01:26:54;72.85;;;33.20;;
1014;SDS011;8170;48.118;11.628;2023-01-24T01:28:12;68.75;;;33.25;;
1014;SDS011;8170;48.118;11.628;2023-01-24T01:29:27;73.97;;;34.78;;
1014;SDS011;8170;48.118;11.628;2023-01-24T01:30:59;82.40;;;35.75;;
1014;SDS011;8170;48.118;11.628;2023-01-24T01:32:33;76.72;;;37.28;;
1014;SDS011;8170;48.118;11.628;2023-01-24T01:33:54;66.68;;;32.80;;
1014;SDS011;8170;48.118;11.628;2023-01-24T01:35:01;77.97;;;34.25;;
1014;SDS011;8170;48.118;11.628;2023-01-24T01:36:18;63.95;;;32.58;;
1014;SDS011;8170;48.118;11.628;2023-01-24T01:37:27;76.78;;;35.10;;
1014;SDS011;8170;48.118;11.628;2023-01-24T01:38:39;70.78;;;34.60;;
1014;SDS011;8170;48.118;11.628;2023-01-24T01:40:20;87.10;;;36.25;;
1014;SDS011;8170;48.118;11.628;2023-01-24T01:41:35;76.88;;;33.33;;
1014;SDS011;8170;48.118;11.628;2023-01-24T01:43:26;71.90;;;32.38;;
1014;SDS011;8170;48.118;11.628;2023-01-24T01:46:57;75.95;;;33.17;;
1014;SDS011;8170;48.118;11.628;2023-01-24T01:48:42;80.53;;;34.30;;
1014;SDS011;8170;48.118;11.628;2023-01-24T01:50:01;77.93;;;34.88;;
1014;SDS011;8170;48.118;11.628;2023-01-24T01:51:16;69.95;;;33.33;;
1014;SDS011;8170;48.118;11.628;2023-01-24T01:54:31;63.83;;;30.90;;
1014;SDS011;8170;48.118;11.628;2023-01-24T01:57:22;73.53;;;32.78;;
1014;SDS011;8170;48.118;11.628;2023-01-24T01:58:36;68.38;;;33.22;;
1014;SDS011;8170;48.118;11.628;2023-01-24T01:59:52;73.70;;;32.83;;
1014;SDS011;8170;48.118;11.628;2023-01-24T02:01:12;81.53;;;34.03;;
1014;SDS011;8170;48.118;11.628;2023-01-24T02:02:20;61.85;;;31.48;;
1014;SDS011;8170;48.118;11.628;2023-01-24T02:04:15;63.80;;;30.60;;
1014;SDS011;8170;48.118;11.628;2023-01-24T02:05:41;67.95;;;30.90;;
1014;SDS011;8170;48.118;11.628;2023-01-24T02:07:02;84.13;;;34.00;;
1014;SDS011;8170;48.118;11.628;2023-01-24T02:08:16;70.30;;;32.55;;
1014;SDS011;8170;48.118;11.628;2023-01-24T02:09:37;66.85;;;31.67;;
1014;SDS011;8170;48.118;11.628;2023-01-24T02:10:58;71.03;;;33.67;;
1014;SDS011;8170;48.118;11.628;2023-01-24T02:12:31;72.32;;;32.47;;
1014;SDS011;8170;48.118;11.628;2023-01-24T02:14:13;74.50;;;31.85;;
1014;SDS011;8170;48.118;11.628;2023-01-24T02:15:38;71.95;;;34.78;;
1014;SDS011;8170;48.118;11.628;2023-01-24T02:17:20;59.13;;;31.13;;
1014;SDS011;8170;48.118;11.628;2023-01-24T02:18:44;68.90;;;33.35;;
1014;SDS011;8170;48.118;11.628;2023-01-24T02:20:02;61.22;;;30.30;;
1014;SDS011;8170;48.118;11.628;2023-01-24T02:21:32;67.47;;;32.80;;
1014;SDS011;8170;48.118;11.628;2023-01-24T02:22:42;73.45;;;33.58;;
1014;SDS011;8170;48.118;11.628;2023-01-24T02:24:19;68.97;;;33.20;;
1014;SDS011;8170;48.118;11.628;2023-01-24T02:25:36;81.55;;;34.33;;
1014;SDS011;8170;48.118;11.628;2023-01-24T02:26:50;80.03;;;35.78;;
1014;SDS011;8170;48.118;11.628;2023-01-24T02:27:58;88.50;;;35.33;;
1014;SDS011;8170;48.118;11.628;2023-01-24T02:29:21;89.50;;;36.05;;
1014;SDS011;8170;48.118;11.628;2023-01-24T02:30:31;79.03;;;34.38;;
1014;SDS011;8170;48.118;11.628;2023-01-24T02:31:53;85.30;;;37.30;;
1014;SDS011;8170;48.118;11.628;2023-01-24T02:33:03;84.53;;;37.42;;
1014;SDS011;8170;48.118;11.628;2023-01-24T02:34:17;74.95;;;35.10;;
1014;SDS011;8170;48.118;11.628;2023-01-24T02:35:26;72.75;;;34.10;;
1014;SDS011;8170;48.118;11.628;2023-01-24T02:36:52;88.32;;;35.00;;
1014;SDS011;8170;48.118;11.628;2023-01-24T02:37:58;75.57;;;33.47;;
1014;SDS011;8170;48.118;11.628;2023-01-24T02:40:40;75.30;;;33.03;;
1014;SDS011;8170;48.118;11.628;2023-01-24T02:41:51;76.63;;;33.35;;
1014;SDS011;8170;48.118;11.628;2023-01-24T02:43:08;79.25;;;32.13;;
1014;SDS011;8170;48.118;11.628;2023-01-24T02:44:40;76.97;;;34.50;;
1014;SDS011;8170;48.118;11.628;2023-01-24T02:46:02;72.45;;;31.55;;
1014;SDS011;8170;48.118;11.628;2023-01-24T02:47:44;71.75;;;31.33;;
1014;SDS011;8170;48.118;11.628;2023-01-24T02:51:58;74.38;;;33.17;;
1014;SDS011;8170;48.118;11.628;2023-01-24T02:56:21;70.72;;;32.38;;
1014;SDS011;8170;48.118;11.628;2023-01-24T02:58:20;71.85;;;32.72;;
1014;SDS011;8170;48.118;11.628;2023-01-24T03:03:09;76.80;;;31.00;;
1014;SDS011;8170;48.118;11.628;2023-01-24T03:05:02;63.58;;;29.25;;
1014;SDS011;8170;48.118;11.628;2023-01-24T03:07:20;73.95;;;32.63;;
1014;SDS011;8170;48.118;11.628;2023-01-24T03:09:33;72.82;;;30.85;;
1014;SDS011;8170;48.118;11.628;2023-01-24T03:11:54;82.10;;;30.55;;
1014;SDS011;8170;48.118;11.628;2023-01-24T03:15:59;74.93;;;33.47;;
1014;SDS011;8170;48.118;11.628;2023-01-24T03:19:26;74.57;;;30.65;;
1014;SDS011;8170;48.118;11.628;2023-01-24T03:21:22;63.65;;;29.38;;
1014;SDS011;8170;48.118;11.628;2023-01-24T03:23:13;77.93;;;31.90;;
1014;SDS011;8170;48.118;11.628;2023-01-24T03:24:55;80.53;;;31.85;;
1014;SDS011;8170;48.118;11.628;2023-01-24T03:27:24;66.25;;;29.77;;
1014;SDS011;8170;48.118;11.628;2023-01-24T03:32:16;79.57;;;31.23;;
1014;SDS011;8170;48.118;11.628;2023-01-24T03:34:48;75.20;;;31.35;;
1014;SDS011;8170;48.118;11.628;2023-01-24T03:36:55;71.60;;;29.67;;
1014;SDS011;8170;48.118;11.628;2023-01-24T03:38:58;62.75;;;28.52;;
1014;SDS011;8170;48.118;11.628;2023-01-24T03:41:11;80.97;;;31.80;;
1014;SDS011;8170;48.118;11.628;2023-01-24T03:42:58;59.38;;;28.02;;
1014;SDS011;8170;48.118;11.628;2023-01-24T03:44:59;76.38;;;32.30;;
1014;SDS011;8170;48.118;11.628;2023-01-24T03:46:53;67.68;;;30.42;;
1014;SDS011;8170;48.118;11.628;2023-01-24T03:48:34;75.72;;;30.17;;
1014;SDS011;8170;48.118;11.628;2023-01-24T03:50:28;62.22;;;28.98;;
1014;SDS011;8170;48.118;11.628;2023-01-24T03:52:45;70.20;;;30.45;;
1014;SDS011;8170;48.118;11.628;2023-01-24T03:54:36;69.20;;;29.75;;
1014;SDS011;8170;48.118;11.628;2023-01-24T03:57:58;72.25;;;31.20;;
1014;SDS011;8170;48.118;11.628;2023-01-24T03:59:33;60.35;;;28.77;;
1014;SDS011;8170;48.118;11.628;2023-01-24T04:03:42;63.15;;;28.80;;
1014;SDS011;8170;48.118;11.628;2023-01-24T04:06:12;71.47;;;30.33;;
1014;SDS011;8170;48.118;11.628;2023-01-24T04:08:14;74.90;;;31.95;;
1014;SDS011;8170;48.118;11.628;2023-01-24T04:09:57;78.80;;;34.65;;
1014;SDS011;8170;48.118;11.628;2023-01-24T04:11:47;75.60;;;33.70;;
1014;SDS011;8170;48.118;11.628;2023-01-24T04:13:28;91.63;;;36.83;;
1014;SDS011;8170;48.118;11.628;2023-01-24T04:15:44;93.32;;;37.60;;
1014;SDS011;8170;48.118;11.628;2023-01-24T04:17:38;86.90;;;35.83;;
1014;SDS011;8170;48.118;11.628;2023-01-24T04:19:35;80.75;;;37.20;;
1014;SDS011;8170;48.118;11.628;2023-01-24T04:21:24;100.80;;;36.20;;
1014;SDS011;8170;48.118;11.628;2023-01-24T04:23:27;94.25;;;36.65;;
1014;SDS011;8170;48.118;11.628;2023-01-24T04:25:25;94.05;;;37.75;;
1014;SDS011;8170;48.118;11.628;2023-01-24T04:27:16;76.57;;;35.17;;
1014;SDS011;8170;48.118;11.628;2023-01-24T04:28:54;80.68;;;34.95;;
1014;SDS011;8170;48.118;11.628;2023-01-24T04:30:49;84.35;;;32.63;;
1014;SDS011;8170;48.118;11.628;2023-01-24T04:40:01;80.57;;;32.88;;
1014;SDS011;8170;48.118;11.628;2023-01-24T04:42:00;66.85;;;30.08;;
1014;SDS011;8170;48.118;11.628;2023-01-24T04:44:23;72.00;;;32.65;;
1014;SDS011;8170;48.118;11.628;2023-01-24T04:48:49;75.30;;;31.25;;
1014;SDS011;8170;48.118;11.628;2023-01-24T04:50:29;77.38;;;34.65;;
1014;SDS011;8170;48.118;11.628;2023-01-24T04:54:58;87.20;;;34.35;;
1014;SDS011;8170;48.118;11.628;2023-01-24T04:56:52;76.55;;;32.90;;
1014;SDS011;8170;48.118;11.628;2023-01-24T04:59:03;86.18;;;33.80;;
1014;SDS011;8170;48.118;11.628;2023-01-24T05:01:24;64.80;;;31.40;;
1014;SDS011;8170;48.118;11.628;2023-01-24T05:08:13;83.80;;;33.22;;
1014;SDS011;8170;48.118;11.628;2023-01-24T05:10:38;80.47;;;33.15;;
1014;SDS011;8170;48.118;11.628;2023-01-24T05:14:42;70.32;;;32.97;;
1014;SDS011;8170;48.118;11.628;2023-01-24T05:16:30;81.75;;;32.05;;
1014;SDS011;8170;48.118;11.628;2023-01-24T05:18:22;82.88;;;34.95;;
1014;SDS011;8170;48.118;11.628;2023-01-24T05:20:43;91.13;;;33.88;;
1014;SDS011;8170;48.118;11.628;2023-01-24T05:22:38;76.88;;;33.42;;
1014;SDS011;8170;48.118;11.628;2023-01-24T05:24:58;72.53;;;29.00;;
1014;SDS011;8170;48.118;11.628;2023-01-24T05:30:04;77.40;;;30.10;;
1014;SDS011;8170;48.118;11.628;2023-01-24T05:31:57;75.53;;;31.60;;
1014;SDS011;8170;48.118;11.628;2023-01-24T05:34:03;70.75;;;30.65;;
1014;SDS011;8170;48.118;11.628;2023-01-24T05:35:55;72.97;;;30.55;;
1014;SDS011;8170;48.118;11.628;2023-01-24T05:37:57;70.78;;;29.83;;
1014;SDS011;8170;48.118;11.628;2023-01-24T05:39:58;60.92;;;27.52;;
1014;SDS011;8170;48.118;11.628;2023-01-24T05:41:28;76.38;;;32.55;;
1014;SDS011;8170;48.118;11.628;2023-01-24T05:43:19;66.10;;;29.88;;
1014;SDS011;8170;48.118;11.628;2023-01-24T05:45:34;70.20;;;30.83;;
1014;SDS011;8170;48.118;11.628;2023-01-24T05:47:53;59.78;;;27.77;;
1014;SDS011;8170;48.118;11.628;2023-01-24T05:49:34;77.15;;;29.05;;
1014;SDS011;8170;48.118;11.628;2023-01-24T05:53:29;60.10;;;26.15;;
1014;SDS011;8170;48.118;11.628;2023-01-24T05:55:27;72.53;;;29.45;;
1014;SDS011;8170;48.118;11.628;2023-01-24T05:57:30;64.45;;;28.80;;
1014;SDS011;8170;48.118;11.628;2023-01-24T05:59:46;71.75;;;27.75;;
1014;SDS011;8170;48.118;11.628;2023-01-24T06:02:26;57.85;;;28.80;;
1014;SDS011;8170;48.118;11.628;2023-01-24T06:04:09;62.05;;;27.90;;
1014;SDS011;8170;48.118;11.628;2023-01-24T06:10:16;56.42;;;27.65;;
1014;SDS011;8170;48.118;11.628;2023-01-24T06:11:36;74.10;;;29.38;;
1014;SDS011;8170;48.118;11.628;2023-01-24T06:13:14;71.75;;;30.15;;
1014;SDS011;8170;48.118;11.628;2023-01-24T06:16:26;62.58;;;27.95;;
1014;SDS011;8170;48.118;11.628;2023-01-24T06:18:52;75.88;;;30.92;;
1014;SDS011;8170;48.118;11.628;2023-01-24T06:23:38;91.03;;;35.88;;
1014;SDS011;8170;48.118;11.628;2023-01-24T06:25:57;120.97;;;42.80;;
1014;SDS011;8170;48.118;11.628;2023-01-24T06:29:31;85.75;;;35.08;;
1014;SDS011;8170;48.118;11.628;2023-01-24T06:31:34;74.80;;;32.33;;
1014;SDS011;8170;48.118;11.628;2023-01-24T06:33:45;79.20;;;30.58;;
1014;SDS011;8170;48.118;11.628;2023-01-24T06:38:14;69.43;;;30.10;;
1014;SDS011;8170;48.118;11.628;2023-01-24T06:39:54;78.35;;;32.55;;
1014;SDS011;8170;48.118;11.628;2023-01-24T06:42:28;70.10;;;29.25;;
1014;SDS011;8170;48.118;11.628;2023-01-24T06:44:17;80.95;;;33.53;;
1014;SDS011;8170;48.118;11.628;2023-01-24T06:46:43;89.22;;;34.03;;
1014;SDS011;8170;48.118;11.628;2023-01-24T06:48:55;84.88;;;33.90;;
1014;SDS011;8170;48.118;11.628;2023-01-24T06:56:55;111.38;;;38.28;;
1014;SDS011;8170;48.118;11.628;2023-01-24T06:58:49;89.45;;;35.97;;
1014;SDS011;8170;48.118;11.628;2023-01-24T07:01:55;85.03;;;34.95;;
1014;SDS011;8170;48.118;11.628;2023-01-24T07:03:55;107.57;;;39.45;;
1014;SDS011;8170;48.118;11.628;2023-01-24T07:06:24;107.22;;;38.40;;
1014;SDS011;8170;48.118;11.628;2023-01-24T07:10:04;96.10;;;37.10;;
1014;SDS011;8170;48.118;11.628;2023-01-24T07:12:07;97.82;;;38.00;;
1014;SDS011;8170;48.118;11.628;2023-01-24T07:13:42;88.78;;;37.80;;
1014;SDS011;8170;48.118;11.628;2023-01-24T07:15:28;98.28;;;39.83;;
1014;SDS011;8170;48.118;11.628;2023-01-24T07:25:32;87.85;;;38.30;;
1014;SDS011;8170;48.118;11.628;2023-01-24T07:29:47;92.97;;;36.45;;
1014;SDS011;8170;48.118;11.628;2023-01-24T07:31:58;93.63;;;36.42;;
1014;SDS011;8170;48.118;11.628;2023-01-24T07:34:05;100.78;;;38.75;;
1014;SDS011;8170;48.118;11.628;2023-01-24T07:36:55;91.38;;;38.13;;
1014;SDS011;8170;48.118;11.628;2023-01-24T07:39:26;87.80;;;37.53;;
1014;SDS011;8170;48.118;11.628;2023-01-24T07:41:50;103.47;;;38.65;;
1014;SDS011;8170;48.118;11.628;2023-01-24T07:43:39;97.38;;;37.47;;
1014;SDS011;8170;48.118;11.628;2023-01-24T07:46:30;109.03;;;38.80;;
1014;SDS011;8170;48.118;11.628;2023-01-24T07:50:17;87.20;;;35.35;;
1014;SDS011;8170;48.118;11.628;2023-01-24T07:54:22;77.88;;;35.63;;
1014;SDS011;8170;48.118;11.628;2023-01-24T07:56:01;88.22;;;36.22;;
1014;SDS011;8170;48.118;11.628;2023-01-24T07:58:06;85.65;;;35.55;;
1014;SDS011;8170;48.118;11.628;2023-01-24T08:00:26;88.78;;;37.28;;
1014;SDS011;8170;48.118;11.628;2023-01-24T08:02:29;76.55;;;33.03;;
1014;SDS011;8170;48.118;11.628;2023-01-24T08:04:37;73.95;;;33.35;;
1014;SDS011;8170;48.118;11.628;2023-01-24T08:07:17;69.55;;;34.25;;
1014;SDS011;8170;48.118;11.628;2023-01-24T08:09:41;81.47;;;35.17;;
1014;SDS011;8170;48.118;11.628;2023-01-24T08:12:11;75.25;;;32.97;;
1014;SDS011;8170;48.118;11.628;2023-01-24T08:18:13;75.57;;;33.72;;
1014;SDS011;8170;48.118;11.628;2023-01-24T08:21:50;78.38;;;35.53;;
1014;SDS011;8170;48.118;11.628;2023-01-24T08:25:58;65.50;;;32.60;;
1014;SDS011;8170;48.118;11.628;2023-01-24T08:27:56;70.78;;;32.13;;
1014;SDS011;8170;48.118;11.628;2023-01-24T08:39:53;58.40;;;28.90;;
1014;SDS011;8170;48.118;11.628;2023-01-24T08:42:05;59.97;;;27.73;;
1014;SDS011;8170;48.118;11.628;2023-01-24T08:44:10;56.03;;;27.23;;
1014;SDS011;8170;48.118;11.628;2023-01-24T08:46:05;65.18;;;29.52;;
1014;SDS011;8170;48.118;11.628;2023-01-24T08:52:46;62.65;;;27.40;;
1014;SDS011;8170;48.118;11.628;2023-01-24T08:54:59;50.10;;;25.33;;
1014;SDS011;8170;48.118;11.628;2023-01-24T08:57:14;55.17;;;26.63;;
1014;SDS011;8170;48.118;11.628;2023-01-24T08:59:09;58.03;;;29.23;;
1014;SDS011;8170;48.118;11.628;2023-01-24T09:01:29;53.45;;;27.00;;
1014;SDS011;8170;48.118;11.628;2023-01-24T09:03:55;45.88;;;24.02;;
1014;SDS011;8170;48.118;11.628;2023-01-24T09:07:20;58.20;;;27.45;;
1014;SDS011;8170;48.118;11.628;2023-01-24T09:08:57;49.78;;;26.40;;
1014;SDS011;8170;48.118;11.628;2023-01-24T09:11:06;58.33;;;26.10;;
1014;SDS011;8170;48.118;11.628;2023-01-24T09:13:23;48.28;;;25.50;;
1014;SDS011;8170;48.118;11.628;2023-01-24T09:17:23;50.22;;;25.88;;
1014;SDS011;8170;48.118;11.628;2023-01-24T09:19:25;52.15;;;25.55;;
1014;SDS011;8170;48.118;11.628;2023-01-24T09:21:08;45.78;;;24.95;;
1014;SDS011;8170;48.118;11.628;2023-01-24T09:22:12;54.45;;;26.60;;
1014;SDS011;8170;48.118;11.628;2023-01-24T09:23:20;47.13;;;25.83;;
1014;SDS011;8170;48.118;11.628;2023-01-24T09:24:24;47.30;;;25.08;;
1014;SDS011;8170;48.118;11.628;2023-01-24T09:25:31;47.22;;;26.23;;
1014;SDS011;8170;48.118;11.628;2023-01-24T09:26:37;45.75;;;24.60;;
1014;SDS011;8170;48.118;11.628;2023-01-24T09:27:52;54.95;;;29.73;;
1014;SDS011;8170;48.118;11.628;2023-01-24T09:28:55;50.97;;;25.98;;
1014;SDS011;8170;48.118;11.628;2023-01-24T09:30:05;43.13;;;23.20;;
1014;SDS011;8170;48.118;11.628;2023-01-24T09:31:11;44.72;;;24.55;;
1014;SDS011;8170;48.118;11.628;2023-01-24T09:32:15;40.42;;;23.98;;
1014;SDS011;8170;48.118;11.628;2023-01-24T09:33:24;39.35;;;23.95;;
1014;SDS011;8170;48.118;11.628;2023-01-24T09:34:28;43.20;;;23.88;;
1014;SDS011;8170;48.118;11.628;2023-01-24T09:35:32;38.05;;;22.17;;
1014;SDS011;8170;48.118;11.628;2023-01-24T09:36:42;35.42;;;22.25;;
1014;SDS011;8170;48.118;11.628;2023-01-24T09:37:46;38.08;;;21.83;;
1014;SDS011;8170;48.118;11.628;2023-01-24T09:38:51;36.95;;;23.30;;
1014;SDS011;8170;48.118;11.628;2023-01-24T09:40:15;44.90;;;25.40;;
1014;SDS011;8170;48.118;11.628;2023-01-24T09:41:25;37.97;;;24.33;;
1014;SDS011;8170;48.118;11.628;2023-01-24T09:42:44;37.17;;;23.20;;
1014;SDS011;8170;48.118;11.628;2023-01-24T09:43:56;39.70;;;22.50;;
1014;SDS011;8170;48.118;11.628;2023-01-24T09:45:08;36.15;;;23.77;;
1014;SDS011;8170;48.118;11.628;2023-01-24T09:46:24;35.65;;;21.02;;
1014;SDS011;8170;48.118;11.628;2023-01-24T09:47:34;39.78;;;23.85;;
1014;SDS011;8170;48.118;11.628;2023-01-24T09:48:46;38.05;;;23.98;;
1014;SDS011;8170;48.118;11.628;2023-01-24T09:49:59;44.22;;;23.92;;
1014;SDS011;8170;48.118;11.628;2023-01-24T09:51:13;37.30;;;22.83;;
1014;SDS011;8170;48.118;11.628;2023-01-24T09:52:26;40.22;;;24.33;;
1014;SDS011;8170;48.118;11.628;2023-01-24T09:53:44;41.17;;;24.98;;
1014;SDS011;8170;48.118;11.628;2023-01-24T09:54:50;49.33;;;26.88;;
1014;SDS011;8170;48.118;11.628;2023-01-24T09:55:59;39.55;;;24.30;;
1014;SDS011;8170;48.118;11.628;2023-01-24T09:57:11;40.53;;;25.50;;
1014;SDS011;8170;48.118;11.628;2023-01-24T09:58:24;36.25;;;23.75;;
1014;SDS011;8170;48.118;11.628;2023-01-24T09:59:36;38.78;;;23.35;;
1014;SDS011;8170;48.118;11.628;2023-01-24T10:00:46;38.83;;;24.88;;
1014;SDS011;8170;48.118;11.628;2023-01-24T10:01:53;36.72;;;24.27;;
1014;SDS011;8170;48.118;11.628;2023-01-24T10:02:57;36.40;;;23.27;;
1014;SDS011;8170;48.118;11.628;2023-01-24T10:04:03;42.83;;;22.65;;
1014;SDS011;8170;48.118;11.628;2023-01-24T10:05:18;42.72;;;23.27;;
1014;SDS011;8170;48.118;11.628;2023-01-24T10:06:27;35.08;;;21.95;;
1014;SDS011;8170;48.118;11.628;2023-01-24T10:07:37;41.33;;;23.60;;
1014;SDS011;8170;48.118;11.628;2023-01-24T10:09:01;34.72;;;21.98;;
1014;SDS011;8170;48.118;11.628;2023-01-24T10:10:20;33.13;;;21.50;;
1014;SDS011;8170;48.118;11.628;2023-01-24T10:11:42;28.70;;;20.38;;
1014;SDS011;8170;48.118;11.628;2023-01-24T10:12:52;37.80;;;23.60;;
1014;SDS011;8170;48.118;11.628;2023-01-24T10:14:08;35.78;;;21.65;;
1014;SDS011;8170;48.118;11.628;2023-01-24T10:17:05;33.97;;;21.80;;
1014;SDS011;8170;48.118;11.628;2023-01-24T10:21:39;29.45;;;19.27;;
1014;SDS011;8170;48.118;11.628;2023-01-24T10:22:59;29.70;;;19.88;;
1014;SDS011;8170;48.118;11.628;2023-01-24T10:24:11;30.70;;;20.02;;
1014;SDS011;8170;48.118;11.628;2023-01-24T10:25:19;31.70;;;20.73;;
1014;SDS011;8170;48.118;11.628;2023-01-24T10:26:30;37.20;;;24.13;;
1014;SDS011;8170;48.118;11.628;2023-01-24T10:27:41;31.42;;;21.73;;
1014;SDS011;8170;48.118;11.628;2023-01-24T10:28:50;30.85;;;22.00;;
1014;SDS011;8170;48.118;11.628;2023-01-24T10:29:59;33.38;;;22.60;;
1014;SDS011;8170;48.118;11.628;2023-01-24T10:31:07;33.45;;;20.90;;
1014;SDS011;8170;48.118;11.628;2023-01-24T10:32:20;31.33;;;22.90;;
1014;SDS011;8170;48.118;11.628;2023-01-24T10:33:37;32.70;;;22.55;;
1014;SDS011;8170;48.118;11.628;2023-01-24T10:34:59;29.20;;;19.90;;
1014;SDS011;8170;48.118;11.628;2023-01-24T10:36:22;35.13;;;22.38;;
1014;SDS011;8170;48.118;11.628;2023-01-24T10:37:34;33.13;;;22.70;;
1014;SDS011;8170;48.118;11.628;2023-01-24T10:38:44;29.75;;;20.23;;
1014;SDS011;8170;48.118;11.628;2023-01-24T10:39:51;36.78;;;24.67;;
1014;SDS011;8170;48.118;11.628;2023-01-24T10:40:58;38.33;;;22.52;;
1014;SDS011;8170;48.118;11.628;2023-01-24T10:42:24;32.85;;;22.63;;
1014;SDS011;8170;48.118;11.628;2023-01-24T10:43:33;37.97;;;24.92;;
1014;SDS011;8170;48.118;11.628;2023-01-24T10:44:45;38.95;;;25.90;;
1014;SDS011;8170;48.118;11.628;2023-01-24T10:46:00;37.35;;;25.15;;
1014;SDS011;8170;48.118;11.628;2023-01-24T10:47:20;34.13;;;22.95;;
1014;SDS011;8170;48.118;11.628;2023-01-24T10:48:46;34.90;;;23.23;;
1014;SDS011;8170;48.118;11.628;2023-01-24T10:50:04;34.80;;;22.77;;
1014;SDS011;8170;48.118;11.628;2023-01-24T10:51:21;33.90;;;22.67;;
1014;SDS011;8170;48.118;11.628;2023-01-24T10:52:30;32.53;;;22.98;;
1014;SDS011;8170;48.118;11.628;2023-01-24T10:53:35;34.67;;;24.25;;
1014;SDS011;8170;48.118;11.628;2023-01-24T10:54:45;35.67;;;23.90;;
1014;SDS011;8170;48.118;11.628;2023-01-24T10:55:56;33.50;;;23.90;;
1014;SDS011;8170;48.118;11.628;2023-01-24T10:57:03;35.17;;;24.40;;
1014;SDS011;8170;48.118;11.628;2023-01-24T10:58:18;33.83;;;22.45;;
1014;SDS011;8170;48.118;11.628;2023-01-24T10:59:26;32.70;;;23.15;;
1014;SDS011;8170;48.118;11.628;2023-01-24T11:00:40;33.72;;;22.40;;
1014;SDS011;8170;48.118;11.628;2023-01-24T11:01:49;38.30;;;25.15;;
1014;SDS011;8170;48.118;11.628;2023-01-24T11:02:53;34.30;;;24.70;;
1014;SDS011;8170;48.118;11.628;2023-01-24T11:04:14;31.35;;;22.70;;
1014;SDS011;8170;48.118;11.628;2023-01-24T11:05:25;33.13;;;22.65;;
1014;SDS011;8170;48.118;11.628;2023-01-24T11:06:47;36.88;;;22.13;;
1014;SDS011;8170;48.118;11.628;2023-01-24T11:07:53;32.80;;;23.25;;
1014;SDS011;8170;48.118;11.628;2023-01-24T11:09:04;33.00;;;22.90;;
1014;SDS011;8170;48.118;11.628;2023-01-24T11:10:22;36.75;;;24.65;;
1014;SDS011;8170;48.118;11.628;2023-01-24T11:11:31;36.13;;;24.65;;
1014;SDS011;8170;48.118;11.628;2023-01-24T11:12:36;45.15;;;25.83;;
1014;SDS011;8170;48.118;11.628;2023-01-24T11:13:57;34.03;;;22.98;;
1014;SDS011;8170;48.118;11.628;2023-01-24T11:15:03;39.38;;;24.45;;